createdAt,value
2022-09-03T00:00:13.544Z,100133.69
2022-09-03T00:04:51.471Z,100122.31
2022-09-03T00:09:04.232Z,100133.53
2022-09-03T00:13:08.065Z,100126.91
2022-09-03T00:17:23.000Z,100100.84
2022-09-03T00:21:47.824Z,100110.91
2022-09-03T00:25:59.174Z,100106.81
2022-09-03T00:30:04.710Z,100102.59
2022-09-03T00:34:34.529Z,100100.72
2022-09-03T00:38:38.303Z,100096.72
2022-09-03T00:42:56.001Z,100094.94
2022-09-03T00:47:11.076Z,100097.34
2022-09-03T00:51:44.815Z,100102.97
2022-09-03T00:55:58.709Z,100103.69
2022-09-03T01:00:07.693Z,100095.84
2022-09-03T01:05:03.512Z,100096.34
2022-09-03T01:09:30.271Z,100091.59
2022-09-03T01:14:02.567Z,100101.78
2022-09-03T01:18:28.499Z,100111.69
2022-09-03T01:23:05.107Z,100108.09
2022-09-03T01:27:40.196Z,100120.25
2022-09-03T01:32:28.637Z,100095.44
2022-09-03T01:37:04.312Z,100108.91
2022-09-03T01:41:55.709Z,100121.09
2022-09-03T01:46:04.457Z,100126.19
2022-09-03T01:50:47.998Z,100125.84
2022-09-03T01:55:21.513Z,100133.25
2022-09-03T01:59:33.718Z,100115.00
2022-09-03T02:03:45.553Z,100126.19
2022-09-03T02:08:04.553Z,100118.78
2022-09-03T02:12:22.561Z,100126.19
2022-09-03T02:16:34.577Z,100117.47
2022-09-03T02:20:49.583Z,100112.34
2022-09-03T02:24:52.219Z,100120.91
2022-09-03T02:28:54.067Z,100124.50
2022-09-03T02:32:55.830Z,100114.84
2022-09-03T02:36:57.653Z,100128.94
2022-09-03T02:40:59.407Z,100132.00
2022-09-03T02:45:24.201Z,100120.03
2022-09-03T02:49:27.034Z,100123.13
2022-09-03T02:53:29.061Z,100118.19
2022-09-03T02:57:36.574Z,100122.09
2022-09-03T03:01:38.419Z,100109.59
2022-09-03T03:05:44.434Z,100119.13
2022-09-03T03:09:46.179Z,100119.41
2022-09-03T03:13:48.009Z,100116.78
2022-09-03T03:17:49.720Z,100110.03
2022-09-03T03:21:51.893Z,100107.41
2022-09-03T03:25:53.601Z,100102.63
2022-09-03T03:29:55.472Z,100104.09
2022-09-03T03:33:59.632Z,100110.63
2022-09-03T03:38:01.722Z,100127.50
2022-09-03T03:42:03.690Z,100125.34
2022-09-03T03:46:05.540Z,100114.81
2022-09-03T03:50:08.031Z,100115.28
2022-09-03T03:54:09.850Z,100100.13
2022-09-03T03:58:13.188Z,100119.13
2022-09-03T04:02:15.226Z,100131.97
2022-09-03T04:06:19.383Z,100123.94
2022-09-03T04:10:22.509Z,100111.66
2022-09-03T04:14:25.213Z,100114.38
2022-09-03T04:18:26.978Z,100121.59
2022-09-03T04:22:29.571Z,100112.03
2022-09-03T04:26:32.090Z,100115.00
2022-09-03T04:30:33.899Z,100123.53
2022-09-03T04:34:35.926Z,100114.69
2022-09-03T04:38:42.163Z,100114.69
2022-09-03T04:42:44.140Z,100119.34
2022-09-03T04:46:48.256Z,100101.38
2022-09-03T04:50:50.007Z,100113.25
2022-09-03T04:54:51.866Z,100127.41
2022-09-03T04:59:04.651Z,100118.84
2022-09-03T05:03:07.658Z,100126.44
2022-09-03T05:07:09.987Z,100115.31
2022-09-03T05:11:11.839Z,100107.63
2022-09-03T05:15:14.429Z,100109.50
2022-09-03T05:19:16.643Z,100087.41
2022-09-03T05:23:22.404Z,100082.13
2022-09-03T05:27:24.255Z,100089.25
2022-09-03T05:31:28.317Z,100084.25
2022-09-03T05:35:30.492Z,100091.78
2022-09-03T05:39:32.597Z,100072.81
2022-09-03T05:43:34.633Z,100079.16
2022-09-03T05:47:39.511Z,100088.25
2022-09-03T05:51:42.591Z,100084.91
2022-09-03T05:55:44.428Z,100064.91
2022-09-03T05:59:46.229Z,100081.03
2022-09-03T06:03:56.611Z,100087.16
2022-09-03T06:07:58.397Z,100075.44
2022-09-03T06:12:00.182Z,100082.66
2022-09-03T06:16:07.216Z,100085.47
2022-09-03T06:20:09.920Z,100080.66
2022-09-03T06:24:27.845Z,100084.16
2022-09-03T06:28:32.495Z,100089.56
2022-09-03T06:32:34.489Z,100090.56
2022-09-03T06:36:36.252Z,100086.00
2022-09-03T06:40:38.391Z,100091.41
2022-09-03T06:44:40.207Z,100099.41
2022-09-03T06:48:42.219Z,100090.13
2022-09-03T06:52:55.345Z,100090.28
2022-09-03T06:56:58.824Z,100083.97
2022-09-03T07:01:03.225Z,100093.66
2022-09-03T07:05:05.680Z,100091.75
2022-09-03T07:09:07.859Z,100076.69
2022-09-03T07:13:09.593Z,100070.22
2022-09-03T07:17:11.398Z,100077.28
2022-09-03T07:21:18.535Z,100069.19
2022-09-03T07:25:20.302Z,100068.56
2022-09-03T07:29:22.176Z,100069.94
2022-09-03T07:33:23.984Z,100066.63
2022-09-03T07:37:25.782Z,100063.16
2022-09-03T07:41:28.651Z,100064.06
2022-09-03T07:45:33.219Z,100058.31
2022-09-03T07:49:35.269Z,100045.78
2022-09-03T07:53:37.045Z,100041.81
2022-09-03T07:57:39.018Z,100055.47
2022-09-03T08:01:41.456Z,100060.75
2022-09-03T08:05:43.522Z,100053.06
2022-09-03T08:09:45.287Z,100048.22
2022-09-03T08:14:02.883Z,100057.34
2022-09-03T08:18:05.888Z,100048.41
2022-09-03T08:22:08.322Z,100050.19
2022-09-03T08:26:10.455Z,100049.97
2022-09-03T08:30:12.480Z,100046.78
2022-09-03T08:34:14.853Z,100052.94
2022-09-03T08:38:16.788Z,100039.47
2022-09-03T08:42:24.252Z,100051.16
2022-09-03T08:46:34.296Z,100038.81
2022-09-03T08:50:50.088Z,100042.81
2022-09-03T08:54:52.837Z,100024.69
2022-09-03T08:58:54.764Z,100027.81
2022-09-03T09:03:24.170Z,100020.06
2022-09-03T09:07:42.082Z,100018.25
2022-09-03T09:12:25.026Z,100013.63
2022-09-03T09:16:39.516Z,100017.78
2022-09-03T09:21:08.880Z,100018.50
2022-09-03T09:25:22.359Z,100017.31
2022-09-03T09:29:24.245Z,100006.13
2022-09-03T09:33:26.202Z,100003.34
2022-09-03T09:37:28.549Z,100004.38
2022-09-03T09:41:30.307Z,99994.34
2022-09-03T09:45:35.384Z,99992.22
2022-09-03T09:49:46.863Z,99992.97
2022-09-03T09:53:48.741Z,99990.19
2022-09-03T09:57:53.931Z,99983.03
2022-09-03T10:02:09.517Z,99984.84
2022-09-03T10:06:31.810Z,99971.81
2022-09-03T10:10:46.407Z,99971.00
2022-09-03T10:14:55.501Z,99986.41
2022-09-03T10:19:25.584Z,99984.03
2022-09-03T10:23:28.357Z,99965.22
2022-09-03T10:27:31.993Z,99982.34
2022-09-03T10:32:24.119Z,99968.22
2022-09-03T10:36:37.460Z,99970.78
2022-09-03T10:40:49.850Z,99946.88
2022-09-03T10:45:17.998Z,99963.75
2022-09-03T10:49:26.566Z,99944.75
2022-09-03T10:53:55.708Z,99940.91
2022-09-03T10:58:40.653Z,99940.16
2022-09-03T11:03:21.376Z,99940.31
2022-09-03T11:07:30.414Z,99949.13
2022-09-03T11:11:39.293Z,99944.69
2022-09-03T11:15:52.090Z,99930.97
2022-09-03T11:20:12.135Z,99916.75
2022-09-03T11:24:17.738Z,99929.81
2022-09-03T11:28:50.747Z,99925.03
2022-09-03T11:32:57.374Z,99935.00
2022-09-03T11:37:08.112Z,99923.84
2022-09-03T11:41:35.779Z,99920.53
2022-09-03T11:45:38.891Z,99920.13
2022-09-03T11:50:04.252Z,99920.34
2022-09-03T11:54:13.707Z,99917.22
2022-09-03T11:58:29.862Z,99902.50
2022-09-03T12:02:35.967Z,99899.84
2022-09-03T12:07:30.598Z,99894.31
2022-09-03T12:12:12.026Z,99914.91
2022-09-03T12:16:43.557Z,99909.50
2022-09-03T12:20:55.833Z,99911.66
2022-09-03T12:25:14.668Z,99900.50
2022-09-03T12:29:27.832Z,99898.50
2022-09-03T12:33:29.910Z,99896.38
2022-09-03T12:42:09.412Z,99890.63
2022-09-03T12:46:15.829Z,99879.53
2022-09-03T12:50:23.371Z,99884.50
2022-09-03T12:54:25.225Z,99875.03
2022-09-03T12:58:46.547Z,99883.28
2022-09-03T13:03:04.359Z,99880.25
2022-09-03T13:07:29.295Z,99870.63
2022-09-03T13:11:34.082Z,99859.34
2022-09-03T13:15:35.991Z,99863.75
2022-09-03T13:19:48.414Z,99860.38
2022-09-03T13:24:31.701Z,99866.31
2022-09-03T13:28:58.448Z,99874.13
2022-09-03T13:33:08.272Z,99855.59
2022-09-03T13:37:46.085Z,99850.59
2022-09-03T13:42:23.035Z,99860.66
2022-09-03T13:46:32.923Z,99860.41
2022-09-03T13:50:46.354Z,99863.53
2022-09-03T13:55:04.088Z,99844.22
2022-09-03T13:59:15.278Z,99847.38
2022-09-03T14:03:48.571Z,99838.34
2022-09-03T14:08:14.279Z,99837.81
2022-09-03T14:12:32.295Z,99839.72
2022-09-03T14:17:03.944Z,99825.94
2022-09-03T14:21:08.594Z,99821.41
2022-09-03T14:25:19.780Z,99821.41
2022-09-03T14:29:28.864Z,99824.13
2022-09-03T14:34:11.177Z,99827.09
2022-09-03T14:38:28.956Z,99828.00
2022-09-03T14:42:57.540Z,99840.03
2022-09-03T14:47:31.472Z,99836.25
2022-09-03T14:52:32.647Z,99842.50
2022-09-03T14:57:29.109Z,99832.19
2022-09-03T15:01:39.270Z,99831.38
2022-09-03T15:06:16.829Z,99843.81
2022-09-03T15:10:56.890Z,99838.66
2022-09-03T15:15:20.899Z,99837.47
2022-09-03T15:20:09.098Z,99829.81
2022-09-03T15:24:44.086Z,99830.88
2022-09-03T15:29:07.725Z,99835.81
2022-09-03T15:34:22.964Z,99834.41
2022-09-03T15:38:53.161Z,99827.75
2022-09-03T15:43:08.082Z,99832.00
2022-09-03T15:47:14.042Z,99837.00
2022-09-03T15:51:56.894Z,99829.47
2022-09-03T15:56:40.535Z,99846.47
2022-09-03T16:00:47.928Z,99843.50
2022-09-03T16:04:55.734Z,99836.25
2022-09-03T16:09:00.368Z,99846.66
2022-09-03T16:13:32.440Z,99854.75
2022-09-03T16:17:39.607Z,99842.72
2022-09-03T16:22:03.291Z,99847.25
2022-09-03T16:27:02.959Z,99836.88
2022-09-03T16:31:51.601Z,99836.31
2022-09-03T16:36:07.275Z,99838.63
2022-09-03T16:40:36.226Z,99854.03
2022-09-03T16:45:00.617Z,99856.34
2022-09-03T16:49:32.743Z,99853.91
2022-09-03T16:54:18.276Z,99841.78
2022-09-03T16:59:00.451Z,99838.84
2022-09-03T17:03:44.755Z,99837.66
2022-09-03T17:08:19.964Z,99833.63
2022-09-03T17:12:48.596Z,99838.50
2022-09-03T17:17:26.876Z,99838.88
2022-09-03T17:21:53.274Z,99838.88
2022-09-03T17:26:02.909Z,99842.50
2022-09-03T17:30:23.996Z,99837.16
2022-09-03T17:34:34.145Z,99845.38
2022-09-03T17:39:21.377Z,99839.16
2022-09-03T17:44:05.675Z,99845.97
2022-09-03T17:48:18.938Z,99850.91
2022-09-03T17:52:35.614Z,99853.19
2022-09-03T17:56:50.219Z,99858.38
2022-09-03T18:01:05.972Z,99868.25
2022-09-03T18:06:00.939Z,99878.31
2022-09-03T18:10:25.998Z,99863.53
2022-09-03T18:14:52.085Z,99875.03
2022-09-03T18:19:18.984Z,99890.56
2022-09-03T18:23:45.532Z,99895.94
2022-09-03T18:28:13.706Z,99910.22
2022-09-03T18:32:34.029Z,99914.34
2022-09-03T18:36:54.547Z,99910.25
2022-09-03T18:41:40.744Z,99913.56
2022-09-03T18:51:11.348Z,99915.19
2022-09-03T18:55:53.443Z,99920.31
2022-09-03T19:00:29.121Z,99937.00
2022-09-03T19:05:33.497Z,99928.25
2022-09-03T19:10:10.523Z,99940.28
2022-09-03T19:14:48.669Z,99924.91
2022-09-03T19:19:48.451Z,99935.09
2022-09-03T19:24:09.220Z,99935.50
2022-09-03T19:28:43.662Z,99936.34
2022-09-03T19:33:34.130Z,99949.75
2022-09-03T19:38:24.379Z,99933.03
2022-09-03T19:43:37.367Z,99937.94
2022-09-03T19:48:35.296Z,99948.72
2022-09-03T19:53:17.775Z,99955.47
2022-09-03T19:57:38.057Z,99946.09
2022-09-03T20:01:58.435Z,99954.81
2022-09-03T20:06:20.811Z,99962.56
2022-09-03T20:10:22.609Z,99964.78
2022-09-03T20:14:24.455Z,99976.81
2022-09-03T20:18:30.729Z,99975.09
2022-09-03T20:22:47.549Z,99977.78
2022-09-03T20:27:25.926Z,99990.41
2022-09-03T20:31:52.424Z,99990.81
2022-09-03T20:36:39.538Z,99990.59
2022-09-03T20:41:02.695Z,99991.59
2022-09-03T20:45:17.977Z,99993.38
2022-09-03T20:49:58.180Z,99999.88
2022-09-03T20:54:13.110Z,100004.09
2022-09-03T20:58:42.949Z,100000.53
2022-09-03T21:03:35.583Z,100002.19
2022-09-03T21:08:10.166Z,99998.59
2022-09-03T21:12:51.330Z,99997.59
2022-09-03T21:17:08.144Z,100008.22
2022-09-03T21:21:52.340Z,100008.44
2022-09-03T21:26:10.267Z,100006.38
2022-09-03T21:30:17.717Z,100009.47
2022-09-03T21:34:41.657Z,100010.72
2022-09-03T21:38:49.214Z,100004.50
2022-09-03T21:43:02.394Z,100019.19
2022-09-03T21:47:09.064Z,100012.25
2022-09-03T21:51:26.212Z,100024.34
2022-09-03T21:55:42.295Z,100029.34
2022-09-03T22:00:19.363Z,100045.38
2022-09-03T22:04:21.199Z,100045.50
2022-09-03T22:08:39.150Z,100037.03
2022-09-03T22:13:17.343Z,100042.06
2022-09-03T22:17:26.875Z,100038.66
2022-09-03T22:21:57.161Z,100036.78
2022-09-03T22:26:20.290Z,100036.91
2022-09-03T22:30:22.111Z,100032.81
2022-09-03T22:34:37.096Z,100037.63
2022-09-03T22:39:20.301Z,100029.59
2022-09-03T22:43:36.725Z,100028.06
2022-09-03T22:48:19.889Z,100038.72
2022-09-03T22:52:44.729Z,100027.97
2022-09-03T22:56:46.489Z,100035.28
2022-09-03T23:01:17.795Z,100039.44
2022-09-03T23:05:33.580Z,100033.75
2022-09-03T23:09:37.365Z,100038.94
2022-09-03T23:13:42.907Z,100056.13
2022-09-03T23:18:04.306Z,100041.84
2022-09-03T23:22:13.221Z,100035.75
2022-09-03T23:26:38.157Z,100047.56
2022-09-03T23:30:41.686Z,100045.03
2022-09-03T23:34:43.559Z,100041.03
2022-09-03T23:39:11.637Z,100044.22
2022-09-03T23:43:16.368Z,100052.66
2022-09-03T23:48:06.931Z,100041.25
2022-09-03T23:52:22.515Z,100045.16
2022-09-03T23:57:10.732Z,100039.00
